Página principal
METAR-TAF:

METAR-TAF

Aeroportos :

Fuerteventura, Espanha

latitude: 28-27N, longitude: 013-52W, altura: 22 m

Observação actual do tempo

O boletim foi feito há 26 minutos, às 16:30 UTC
Vento 11 kt de oes-noroeste com rajadas de 24 kt, variando entre oeste e nor-noroeste
Temperatura 26°C
Humidade 51%
Pressão 1017 hPa
Visibilidade 10 km ou mais
Poucas nuvensa uma altura de 3000 ft

METAR: GCFV 181630Z 30011G24KT 260V340 9999 FEW030 26/15 Q1017 WS R01

Hora: 17:56 (16:56 UTC)

Previsão

O boletim foi feito há 26 minutos, às 16:30 UTC
Previsão válida de 18 às 16 UTC a 19 às 15 UTC
Vento 10 kt de oeste
Visibilidade 10 km ou mais
Poucas nuvensa uma altura de 3000 ft
Tornando-se
de 18 às 19 UTC a 18 às 21 UTC
Vento 5 kt de nor-noroeste

TAF: GCFV 181630Z 1816/1915 28010KT 9999 FEW030 TX25/1914Z TN19/1905Z BECMG 1819/1821 34005KT

Observações e previsões do tempo de mais de 4000 aeroportos (mensagens METAR e TAF).

As estações disponíveis são os pontos amarelos e vermelhos sobre o mapa.

Mova o rato sobre o mapa para ver o nome da estação.

Depois clique no ponto para visualizar as observações e previsões meteorológicas.

Para alterar o mapa : clique nos botões verdes com uma cruz preta para aumentar o zoom; no botão verde com uma pitada de zoom; ou nas setas verdes para mapas adjacentes.


METAR-TAF: